createdAt,value
2017-12-15T00:01:53.220Z,1.27
2017-12-15T00:04:22.080Z,1.27
2017-12-15T00:06:50.389Z,1.03
2017-12-15T00:09:20.423Z,1.10
2017-12-15T00:11:48.721Z,1.33
2017-12-15T00:14:17.025Z,1.03
2017-12-15T00:16:45.380Z,1.10
2017-12-15T00:19:13.680Z,1.43
2017-12-15T00:21:41.984Z,1.10
2017-12-15T00:24:11.593Z,1.07
2017-12-15T00:26:39.898Z,1.10
2017-12-15T00:29:08.337Z,0.80
2017-12-15T00:31:36.948Z,0.80
2017-12-15T00:34:05.584Z,1.00
2017-12-15T00:36:33.883Z,0.93
2017-12-15T00:39:02.232Z,1.00
2017-12-15T00:41:30.951Z,1.10
2017-12-15T00:43:59.248Z,0.97
2017-12-15T00:46:27.712Z,0.80
2017-12-15T00:48:56.004Z,1.03
2017-12-15T00:51:24.306Z,0.90
2017-12-15T00:53:52.647Z,0.90
2017-12-15T00:56:21.720Z,0.90
2017-12-15T00:58:50.029Z,0.87
2017-12-15T01:01:18.845Z,0.90
2017-12-15T01:03:47.182Z,0.77
2017-12-15T01:06:16.249Z,0.83
2017-12-15T01:08:44.624Z,0.70
2017-12-15T01:11:12.943Z,0.80
2017-12-15T01:13:41.244Z,0.87
2017-12-15T01:16:09.604Z,1.00
2017-12-15T01:18:37.900Z,1.10
2017-12-15T01:21:06.199Z,0.90
2017-12-15T01:23:34.554Z,0.80
2017-12-15T01:26:02.857Z,0.87
2017-12-15T01:28:31.159Z,0.80
2017-12-15T01:30:59.652Z,0.90
2017-12-15T01:33:27.969Z,0.70
2017-12-15T01:35:56.272Z,0.70
2017-12-15T01:38:24.647Z,0.77
2017-12-15T01:40:52.988Z,0.70
2017-12-15T01:43:21.052Z,0.80
2017-12-15T01:45:49.616Z,0.70
2017-12-15T01:48:17.915Z,0.77
2017-12-15T01:50:46.216Z,0.83
2017-12-15T01:53:14.573Z,0.77
2017-12-15T01:55:42.877Z,0.90
2017-12-15T01:58:11.176Z,0.90
2017-12-15T02:00:40.369Z,0.60
2017-12-15T02:03:08.674Z,0.60
2017-12-15T02:05:37.741Z,0.63
2017-12-15T02:08:06.108Z,0.70
2017-12-15T02:10:34.408Z,0.70
2017-12-15T02:13:02.723Z,0.80
2017-12-15T02:15:31.081Z,0.80
2017-12-15T02:17:59.398Z,0.60
2017-12-15T02:20:27.696Z,0.80
2017-12-15T02:22:56.050Z,0.70
2017-12-15T02:25:24.585Z,0.70
2017-12-15T02:27:52.892Z,0.70
2017-12-15T02:30:21.439Z,0.70
2017-12-15T02:32:50.680Z,0.70
2017-12-15T02:35:19.007Z,0.70
2017-12-15T02:37:47.371Z,0.80
2017-12-15T02:40:15.677Z,0.60
2017-12-15T02:42:43.976Z,0.97
2017-12-15T02:45:12.332Z,0.70
2017-12-15T02:47:40.641Z,0.70
2017-12-15T02:50:08.949Z,0.70
2017-12-15T02:52:37.305Z,0.70
2017-12-15T02:55:05.603Z,0.80
2017-12-15T02:57:33.908Z,0.73
2017-12-15T03:00:02.262Z,0.67
2017-12-15T03:02:30.564Z,0.90
2017-12-15T03:04:58.867Z,0.90
2017-12-15T03:07:28.464Z,0.70
2017-12-15T03:09:56.770Z,1.00
2017-12-15T03:12:25.249Z,0.63
2017-12-15T03:14:54.082Z,0.60
2017-12-15T03:17:25.468Z,0.73
2017-12-15T03:19:53.829Z,0.67
2017-12-15T03:22:22.135Z,0.70
2017-12-15T03:24:51.196Z,0.80
2017-12-15T03:27:19.576Z,1.03
2017-12-15T03:29:47.912Z,1.20
2017-12-15T03:32:16.237Z,0.80
2017-12-15T03:34:44.596Z,0.73
2017-12-15T03:37:12.916Z,0.90
2017-12-15T03:39:41.224Z,1.00
2017-12-15T03:42:09.692Z,0.90
2017-12-15T03:44:38.480Z,0.90
2017-12-15T03:47:06.820Z,0.90
2017-12-15T03:49:35.905Z,0.70
2017-12-15T03:52:05.077Z,0.90
2017-12-15T03:54:33.500Z,1.00
2017-12-15T03:57:03.300Z,1.10
2017-12-15T03:59:31.644Z,1.33
2017-12-15T04:02:00.477Z,1.37
2017-12-15T04:04:28.784Z,1.90
2017-12-15T04:06:57.112Z,1.80
2017-12-15T04:09:25.417Z,2.10
2017-12-15T04:11:53.717Z,2.93
2017-12-15T04:14:22.077Z,3.23
2017-12-15T04:16:51.768Z,2.97
2017-12-15T04:19:20.069Z,3.27
2017-12-15T04:21:48.427Z,3.70
2017-12-15T04:24:16.740Z,2.97
2017-12-15T04:26:45.048Z,2.83
2017-12-15T04:29:13.401Z,1.80
2017-12-15T04:31:41.696Z,2.10
2017-12-15T04:34:10.919Z,1.60
2017-12-15T04:36:39.293Z,1.20
2017-12-15T04:39:08.360Z,1.93
2017-12-15T04:41:36.901Z,1.97
2017-12-15T04:44:05.243Z,1.10
2017-12-15T04:46:33.557Z,1.00
2017-12-15T04:49:01.881Z,0.88
2017-12-15T04:51:30.247Z,0.80
2017-12-15T04:53:58.540Z,0.90
2017-12-15T04:56:26.844Z,1.10
2017-12-15T04:58:55.212Z,1.10
2017-12-15T05:01:23.517Z,1.07
2017-12-15T05:03:51.824Z,0.97
2017-12-15T05:06:20.181Z,1.23
2017-12-15T05:08:48.484Z,1.17
2017-12-15T05:11:16.790Z,2.00
2017-12-15T05:13:45.355Z,2.45
2017-12-15T05:16:13.724Z,3.17
2017-12-15T05:18:41.997Z,2.80
2017-12-15T05:21:10.347Z,3.67
2017-12-15T05:23:39.335Z,1.10
2017-12-15T05:26:07.645Z,0.90
2017-12-15T05:28:36.612Z,1.50
2017-12-15T05:31:04.919Z,1.20
2017-12-15T05:33:33.229Z,1.03
2017-12-15T05:36:01.576Z,0.90
2017-12-15T05:38:29.889Z,0.90
2017-12-15T05:40:58.193Z,1.20
2017-12-15T05:43:26.801Z,1.20
2017-12-15T05:45:59.557Z,1.90
2017-12-15T05:48:28.814Z,2.03
2017-12-15T05:50:57.121Z,1.93
2017-12-15T05:53:25.424Z,2.03
2017-12-15T05:55:54.536Z,1.90
2017-12-15T05:58:23.887Z,1.87
2017-12-15T06:00:52.228Z,2.07
2017-12-15T06:03:20.620Z,1.13
2017-12-15T06:05:48.923Z,1.50
2017-12-15T06:08:17.557Z,1.73
2017-12-15T06:10:46.483Z,1.73
2017-12-15T06:13:14.804Z,1.60
2017-12-15T06:15:43.172Z,2.03
2017-12-15T06:18:11.477Z,3.50
2017-12-15T06:20:41.223Z,2.77
2017-12-15T06:23:09.588Z,2.90
2017-12-15T06:25:37.892Z,5.87
2017-12-15T06:28:06.281Z,5.00
2017-12-15T06:30:34.635Z,3.40
2017-12-15T06:33:02.936Z,3.30
2017-12-15T06:35:31.245Z,3.20
2017-12-15T06:38:00.373Z,2.53
2017-12-15T06:40:28.676Z,3.00
2017-12-15T06:42:56.980Z,2.30
2017-12-15T06:45:25.468Z,2.28
2017-12-15T06:47:53.778Z,2.23
2017-12-15T06:50:22.076Z,2.10
2017-12-15T06:52:50.524Z,1.80
2017-12-15T06:55:19.352Z,2.42
2017-12-15T06:57:47.672Z,2.83
2017-12-15T07:00:16.264Z,2.63
2017-12-15T07:02:45.814Z,2.10
2017-12-15T07:05:14.125Z,3.07
2017-12-15T07:07:42.491Z,2.33
2017-12-15T07:10:10.796Z,1.97
2017-12-15T07:12:39.099Z,2.00
2017-12-15T07:15:08.029Z,1.90
2017-12-15T07:17:36.340Z,1.20
2017-12-15T07:20:04.644Z,3.30
2017-12-15T07:22:33.232Z,1.40
2017-12-15T07:25:02.296Z,1.40
2017-12-15T07:27:30.776Z,1.13
2017-12-15T07:29:59.143Z,2.10
2017-12-15T07:32:27.448Z,1.00
2017-12-15T07:34:55.799Z,1.67
2017-12-15T07:37:24.290Z,1.70
2017-12-15T07:39:52.631Z,1.70
2017-12-15T07:42:20.910Z,1.30
2017-12-15T07:44:49.279Z,1.33
2017-12-15T07:47:18.573Z,1.10
2017-12-15T07:49:46.881Z,1.60
2017-12-15T07:52:15.244Z,1.20
2017-12-15T07:54:43.540Z,1.30
2017-12-15T07:57:11.846Z,2.20
2017-12-15T07:59:40.247Z,1.20
2017-12-15T08:02:09.300Z,1.00
2017-12-15T08:04:37.633Z,1.80
2017-12-15T08:07:06.004Z,1.07
2017-12-15T08:09:34.300Z,1.03
2017-12-15T08:12:02.600Z,1.00
2017-12-15T08:14:31.429Z,1.40
2017-12-15T08:16:59.752Z,1.30
2017-12-15T08:19:28.043Z,1.63
2017-12-15T08:21:56.371Z,1.00
2017-12-15T08:24:24.808Z,1.50
2017-12-15T08:26:53.113Z,1.33
2017-12-15T08:29:21.481Z,1.00
2017-12-15T08:31:49.776Z,1.00
2017-12-15T08:34:18.096Z,1.00
2017-12-15T08:36:46.473Z,1.10
2017-12-15T08:39:14.772Z,1.57
2017-12-15T08:41:43.476Z,1.00
2017-12-15T08:44:12.566Z,1.20
2017-12-15T08:46:40.880Z,1.50
2017-12-15T08:49:09.196Z,1.33
2017-12-15T08:51:38.017Z,1.10
2017-12-15T08:54:06.314Z,1.33
2017-12-15T08:56:34.665Z,1.00
2017-12-15T08:59:03.009Z,1.53
2017-12-15T09:01:31.322Z,1.07
2017-12-15T09:04:05.225Z,1.20
2017-12-15T09:06:33.824Z,1.40
2017-12-15T09:09:02.137Z,1.53
2017-12-15T09:11:30.497Z,1.47
2017-12-15T09:13:59.556Z,1.47
2017-12-15T09:16:28.272Z,3.10
2017-12-15T09:18:56.706Z,2.37
2017-12-15T09:21:25.008Z,1.57
2017-12-15T09:23:53.312Z,1.37
2017-12-15T09:26:22.277Z,1.27
2017-12-15T09:28:50.592Z,1.80
2017-12-15T09:31:18.896Z,1.73
2017-12-15T09:33:47.253Z,1.33
2017-12-15T09:36:15.564Z,1.87
2017-12-15T09:38:43.868Z,1.20
2017-12-15T09:41:12.224Z,1.47
2017-12-15T09:43:40.530Z,1.20
2017-12-15T09:46:09.900Z,1.10
2017-12-15T09:48:38.665Z,1.40
2017-12-15T09:51:06.977Z,0.90
2017-12-15T09:53:35.280Z,1.20
2017-12-15T09:56:04.872Z,1.47
2017-12-15T09:58:33.176Z,1.33
2017-12-15T10:01:01.478Z,1.30
2017-12-15T10:03:29.813Z,0.90
2017-12-15T10:05:58.875Z,2.70
2017-12-15T10:08:27.177Z,1.50
2017-12-15T10:10:55.524Z,1.57
2017-12-15T10:13:23.820Z,1.07
2017-12-15T10:15:52.484Z,1.10
2017-12-15T10:18:21.404Z,1.70
2017-12-15T10:20:49.716Z,1.30
2017-12-15T10:23:18.420Z,1.70
2017-12-15T10:25:46.765Z,1.93
2017-12-15T10:28:14.836Z,1.30
2017-12-15T10:30:43.181Z,1.17
2017-12-15T10:33:11.607Z,1.20
2017-12-15T10:35:40.692Z,1.93
2017-12-15T10:38:09.008Z,1.27
2017-12-15T10:40:37.802Z,1.00
2017-12-15T10:43:06.257Z,1.20
2017-12-15T10:45:35.240Z,1.20
2017-12-15T10:48:03.651Z,0.90
2017-12-15T10:50:31.952Z,1.07
2017-12-15T10:53:00.256Z,1.30
2017-12-15T10:55:28.619Z,1.60
2017-12-15T10:57:57.348Z,1.30
2017-12-15T11:00:25.654Z,1.60
2017-12-15T11:02:54.872Z,1.73
2017-12-15T11:05:23.176Z,1.50
2017-12-15T11:07:51.490Z,1.23
2017-12-15T11:10:19.867Z,1.60
2017-12-15T11:12:48.207Z,1.87
2017-12-15T11:15:16.504Z,1.13
2017-12-15T11:17:45.375Z,1.87
2017-12-15T11:20:13.704Z,1.40
2017-12-15T11:22:42.749Z,1.50
2017-12-15T11:25:11.102Z,0.90
2017-12-15T11:27:39.401Z,1.43
2017-12-15T11:30:07.717Z,1.27
2017-12-15T11:32:36.076Z,1.00
2017-12-15T11:35:04.376Z,1.17
2017-12-15T11:37:32.686Z,1.30
2017-12-15T11:40:01.021Z,1.03
2017-12-15T11:42:30.305Z,1.10
2017-12-15T11:44:59.377Z,1.27
2017-12-15T11:47:27.956Z,1.10
2017-12-15T11:49:56.504Z,1.13
2017-12-15T11:52:24.804Z,1.93
2017-12-15T11:54:53.119Z,1.87
2017-12-15T11:57:22.260Z,1.77
2017-12-15T11:59:50.559Z,1.00
2017-12-15T12:02:18.877Z,1.30
2017-12-15T12:04:47.240Z,1.57
2017-12-15T12:07:15.545Z,1.13
2017-12-15T12:09:43.855Z,1.30
2017-12-15T12:12:12.198Z,1.40
2017-12-15T12:14:40.516Z,1.33
2017-12-15T12:17:08.816Z,1.70
2017-12-15T12:19:37.148Z,1.47
2017-12-15T12:22:05.449Z,1.43
2017-12-15T12:24:33.767Z,1.10
2017-12-15T12:27:02.108Z,1.30
2017-12-15T12:29:30.407Z,0.80
2017-12-15T12:31:58.717Z,0.80
2017-12-15T12:34:27.080Z,0.90
2017-12-15T12:36:55.380Z,1.20
2017-12-15T12:39:23.693Z,0.90
2017-12-15T12:41:52.040Z,1.20
2017-12-15T12:44:20.339Z,1.20
2017-12-15T12:46:48.638Z,1.00
2017-12-15T12:49:18.492Z,0.77
2017-12-15T12:51:46.796Z,0.97
2017-12-15T12:54:15.129Z,1.50
2017-12-15T12:56:43.569Z,1.00
2017-12-15T12:59:11.939Z,1.33
2017-12-15T13:01:41.180Z,0.70
2017-12-15T13:04:09.720Z,0.83
2017-12-15T13:06:38.016Z,1.10
2017-12-15T13:09:06.321Z,1.00
2017-12-15T13:11:35.917Z,1.00
2017-12-15T13:14:04.224Z,0.90
2017-12-15T13:16:32.531Z,0.90
2017-12-15T13:19:01.340Z,0.90
2017-12-15T13:21:29.701Z,0.90
2017-12-15T13:23:58.096Z,0.90
2017-12-15T13:26:27.219Z,1.10
2017-12-15T13:28:55.528Z,0.90
2017-12-15T13:31:23.865Z,1.40
2017-12-15T13:33:52.408Z,2.33
2017-12-15T13:36:21.043Z,2.07
2017-12-15T13:38:49.378Z,1.10
2017-12-15T13:41:17.676Z,1.43
2017-12-15T13:43:46.040Z,1.77
2017-12-15T13:46:14.344Z,1.03
2017-12-15T13:48:42.404Z,1.20
2017-12-15T13:51:10.761Z,1.20
2017-12-15T13:53:39.060Z,0.80
2017-12-15T13:56:07.380Z,0.93
2017-12-15T13:58:36.408Z,1.03
2017-12-15T14:01:04.707Z,0.90
2017-12-15T14:03:33.013Z,1.20
2017-12-15T14:06:01.472Z,1.10
2017-12-15T14:08:29.777Z,1.50
2017-12-15T14:10:58.091Z,1.30
2017-12-15T14:13:27.033Z,1.33
2017-12-15T14:15:56.107Z,1.50
2017-12-15T14:18:24.553Z,1.73
2017-12-15T14:20:52.915Z,1.40
2017-12-15T14:23:21.668Z,0.80
2017-12-15T14:25:49.968Z,1.30
2017-12-15T14:28:18.320Z,1.30
2017-12-15T14:30:46.629Z,0.90
2017-12-15T14:33:14.923Z,1.07
2017-12-15T14:35:43.902Z,1.10
2017-12-15T14:38:12.208Z,1.27
2017-12-15T14:40:40.509Z,1.10
2017-12-15T14:43:08.867Z,1.10
2017-12-15T14:45:37.164Z,1.13
2017-12-15T14:48:05.515Z,2.00
2017-12-15T14:50:33.883Z,1.37
2017-12-15T14:53:02.513Z,1.50
2017-12-15T14:55:30.820Z,1.83
2017-12-15T14:57:59.192Z,1.50
2017-12-15T15:00:27.504Z,1.23
2017-12-15T15:02:55.814Z,1.30
2017-12-15T15:05:24.172Z,1.07
2017-12-15T15:07:52.476Z,1.50
2017-12-15T15:10:20.784Z,1.10
2017-12-15T15:12:49.129Z,0.90
2017-12-15T15:15:17.432Z,1.30
2017-12-15T15:17:45.496Z,1.40
2017-12-15T15:20:16.839Z,1.90
2017-12-15T15:22:45.376Z,2.00
2017-12-15T15:25:13.676Z,2.17
2017-12-15T15:27:42.044Z,4.03
2017-12-15T15:30:10.359Z,4.07
2017-12-15T15:32:38.963Z,4.30
2017-12-15T15:35:07.325Z,5.70
2017-12-15T15:37:35.631Z,5.73
2017-12-15T15:40:03.972Z,6.30
2017-12-15T15:42:32.459Z,10.17
2017-12-15T15:45:01.273Z,8.90
2017-12-15T15:47:29.635Z,7.53
2017-12-15T15:49:57.991Z,5.23
2017-12-15T15:52:26.301Z,6.37
2017-12-15T15:54:54.791Z,10.00
2017-12-15T15:57:23.916Z,12.60
2017-12-15T15:59:52.250Z,19.60
2017-12-15T16:02:20.582Z,17.00
2017-12-15T16:04:48.992Z,13.77
2017-12-15T16:07:17.310Z,9.23
2017-12-15T16:09:45.624Z,14.90
2017-12-15T16:12:13.984Z,11.37
2017-12-15T16:14:42.314Z,15.27
2017-12-15T16:17:10.640Z,17.93
2017-12-15T16:19:39.484Z,23.40
2017-12-15T16:22:07.853Z,23.13
2017-12-15T16:24:36.208Z,24.08
2017-12-15T16:27:04.600Z,24.45
2017-12-15T16:29:33.551Z,20.88
2017-12-15T16:32:01.869Z,23.40
2017-12-15T16:34:30.238Z,18.98
2017-12-15T16:36:59.106Z,28.20
2017-12-15T16:39:27.428Z,25.93
2017-12-15T16:41:56.427Z,19.40
2017-12-15T16:44:24.757Z,16.52
2017-12-15T16:46:53.076Z,15.68
2017-12-15T16:49:21.444Z,15.98
2017-12-15T16:51:49.775Z,13.00
2017-12-15T16:54:19.160Z,11.35
2017-12-15T16:56:48.643Z,9.45
2017-12-15T16:59:16.964Z,10.85
2017-12-15T17:01:45.291Z,11.10
2017-12-15T17:04:13.667Z,11.23
2017-12-15T17:06:42.004Z,10.25
2017-12-15T17:09:10.333Z,10.20
2017-12-15T17:11:38.700Z,8.30
2017-12-15T17:14:08.421Z,6.47
2017-12-15T17:16:37.513Z,6.82
2017-12-15T17:19:05.869Z,7.30
2017-12-15T17:21:34.180Z,7.25
2017-12-15T17:24:02.502Z,7.30
2017-12-15T17:26:30.876Z,11.07
2017-12-15T17:28:59.779Z,9.43
2017-12-15T17:31:28.099Z,26.02
2017-12-15T17:33:56.428Z,21.90
2017-12-15T17:36:24.796Z,16.80
2017-12-15T17:38:53.665Z,18.20
2017-12-15T17:41:21.988Z,19.20
2017-12-15T17:43:50.364Z,16.17
2017-12-15T17:46:18.685Z,15.65
2017-12-15T17:48:47.773Z,12.27
2017-12-15T17:51:17.376Z,9.15
2017-12-15T17:53:45.688Z,8.93
2017-12-15T17:56:14.032Z,6.82
2017-12-15T17:58:44.103Z,8.10
2017-12-15T18:01:14.408Z,8.15
2017-12-15T18:03:42.733Z,6.93
2017-12-15T18:06:11.089Z,6.45
2017-12-15T18:08:39.416Z,6.05
2017-12-15T18:11:07.848Z,4.70
2017-12-15T18:13:36.192Z,3.55
2017-12-15T18:16:05.504Z,4.18
2017-12-15T18:18:34.184Z,3.60
2017-12-15T18:21:03.070Z,3.62
2017-12-15T18:23:31.540Z,3.35
2017-12-15T18:25:59.844Z,4.32
2017-12-15T18:28:28.149Z,4.27
2017-12-15T18:30:56.526Z,4.93
2017-12-15T18:33:25.136Z,5.67
2017-12-15T18:35:53.597Z,6.10
2017-12-15T18:38:21.976Z,6.67
2017-12-15T18:40:50.281Z,4.83
2017-12-15T18:43:18.607Z,5.40
2017-12-15T18:45:46.991Z,5.43
2017-12-15T18:48:15.323Z,6.13
2017-12-15T18:50:43.659Z,6.40
2017-12-15T18:53:12.045Z,6.55
2017-12-15T18:55:41.076Z,6.12
2017-12-15T18:58:09.405Z,6.12
2017-12-15T19:00:37.774Z,5.93
2017-12-15T19:03:06.094Z,7.05
2017-12-15T19:05:34.408Z,7.25
2017-12-15T19:08:02.864Z,7.22
2017-12-15T19:10:31.227Z,9.00
2017-12-15T19:12:59.536Z,8.98
2017-12-15T19:15:27.881Z,9.50
2017-12-15T19:17:56.201Z,14.45
2017-12-15T19:20:24.535Z,11.90
2017-12-15T19:22:52.904Z,12.90
2017-12-15T19:25:21.224Z,10.23
2017-12-15T19:27:49.548Z,11.35
2017-12-15T19:30:17.964Z,26.80
2017-12-15T19:32:47.485Z,21.62
2017-12-15T19:35:16.676Z,18.95
2017-12-15T19:37:45.040Z,16.70
2017-12-15T19:40:13.452Z,13.23
2017-12-15T19:42:41.962Z,13.48
2017-12-15T19:45:10.832Z,15.13
2017-12-15T19:47:39.361Z,14.40
2017-12-15T19:50:07.688Z,14.90
2017-12-15T19:52:36.007Z,18.37
2017-12-15T19:55:04.412Z,26.00
2017-12-15T19:57:34.200Z,25.17
2017-12-15T20:00:02.520Z,22.87
2017-12-15T20:02:30.850Z,32.05
2017-12-15T20:04:59.180Z,23.48
2017-12-15T20:07:27.569Z,22.67
2017-12-15T20:09:56.544Z,29.90
2017-12-15T20:12:24.919Z,26.98
2017-12-15T20:14:53.329Z,24.45
2017-12-15T20:17:21.652Z,23.50
2017-12-15T20:19:50.047Z,21.17
2017-12-15T20:22:19.208Z,18.58
2017-12-15T20:24:47.532Z,20.98
2017-12-15T20:27:15.861Z,20.40
2017-12-15T20:29:44.296Z,20.45
2017-12-15T20:32:12.618Z,21.62
2017-12-15T20:34:41.508Z,18.20
2017-12-15T20:37:09.972Z,16.17
2017-12-15T20:39:38.300Z,15.65
2017-12-15T20:42:06.620Z,17.70
2017-12-15T20:44:34.989Z,15.25
2017-12-15T20:47:03.312Z,16.03
2017-12-15T20:49:32.116Z,17.00
2017-12-15T20:52:00.592Z,15.73
2017-12-15T20:54:29.547Z,16.48
2017-12-15T20:56:57.924Z,16.48
2017-12-15T20:59:26.410Z,16.00
2017-12-15T21:01:54.488Z,16.87
2017-12-15T21:04:23.046Z,15.23
2017-12-15T21:06:51.488Z,15.63
2017-12-15T21:09:19.859Z,14.75
2017-12-15T21:11:48.220Z,13.57
2017-12-15T21:14:16.843Z,14.35
2017-12-15T21:16:45.973Z,14.77
2017-12-15T21:19:14.349Z,13.00
2017-12-15T21:21:45.333Z,14.10
2017-12-15T21:24:14.641Z,12.02
2017-12-15T21:26:42.993Z,12.50
2017-12-15T21:29:11.406Z,12.37
2017-12-15T21:31:39.953Z,13.27
2017-12-15T21:34:08.686Z,11.40
2017-12-15T21:36:37.626Z,12.45
2017-12-15T21:39:06.180Z,13.20
2017-12-15T21:41:34.940Z,11.20
2017-12-15T21:44:03.452Z,11.20
2017-12-15T21:46:32.152Z,10.30
2017-12-15T21:49:00.989Z,9.60
2017-12-15T21:51:29.344Z,8.48
2017-12-15T21:53:57.712Z,11.20
2017-12-15T21:56:26.068Z,7.47
2017-12-15T21:58:54.440Z,11.53
2017-12-15T22:01:22.937Z,11.10
2017-12-15T22:03:51.305Z,11.18
2017-12-15T22:06:20.078Z,11.43
2017-12-15T22:08:48.444Z,12.10
2017-12-15T22:11:16.825Z,13.52
2017-12-15T22:13:45.941Z,11.90
2017-12-15T22:16:15.468Z,13.00
2017-12-15T22:18:43.780Z,11.27
2017-12-15T22:21:12.562Z,10.03
2017-12-15T22:23:44.960Z,10.75
2017-12-15T22:26:13.428Z,10.63
2017-12-15T22:28:42.632Z,11.70
2017-12-15T22:31:11.133Z,13.27
2017-12-15T22:33:39.510Z,21.50
2017-12-15T22:36:07.828Z,15.35
2017-12-15T22:38:36.141Z,14.05
2017-12-15T22:41:04.497Z,12.17
2017-12-15T22:43:32.846Z,12.25
2017-12-15T22:46:01.750Z,10.63
2017-12-15T22:48:30.113Z,14.30
2017-12-15T22:50:58.442Z,10.20
2017-12-15T22:53:26.751Z,9.75
2017-12-15T22:55:55.100Z,9.80
2017-12-15T22:58:23.421Z,10.15
2017-12-15T23:00:52.268Z,11.65
2017-12-15T23:03:20.693Z,10.90
2017-12-15T23:05:49.068Z,12.30
2017-12-15T23:08:17.456Z,10.85
2017-12-15T23:10:45.870Z,11.70
2017-12-15T23:13:14.452Z,12.45
2017-12-15T23:15:43.251Z,11.10
2017-12-15T23:18:11.567Z,9.73
2017-12-15T23:20:40.650Z,12.43
2017-12-15T23:23:08.978Z,11.45
2017-12-15T23:25:37.944Z,11.80
2017-12-15T23:28:06.260Z,13.60
2017-12-15T23:30:35.517Z,11.00
2017-12-15T23:33:04.388Z,9.93
2017-12-15T23:35:32.747Z,9.98
2017-12-15T23:38:01.133Z,11.30
2017-12-15T23:40:29.485Z,11.65
2017-12-15T23:42:57.798Z,11.98
2017-12-15T23:45:26.970Z,11.30
2017-12-15T23:47:55.310Z,10.63
2017-12-15T23:50:23.698Z,11.33
2017-12-15T23:52:52.051Z,9.63
2017-12-15T23:55:37.987Z,11.43
2017-12-15T23:58:06.899Z,11.93
